Terminal Aerodrome Forecast
Issued by NWS

Current Version | Previous Version | Text Only | Print | Product List | Glossary On
Versions: 1 2 3 4 5 6 7 8 9 10 11 12 13 14 15 16 17 18 19 20 21 22 23 24 25 26 27 28 29 30 31 32
000
FTUS43 KTOP 270400 AAB
TAFFOE
TAF AMD
KFOE 270401Z 2704/2724 02015G24KT P6SM SCT015 OVC025
      TEMPO 2704/2706 4SM -RASN OVC013
     FM270600 01012KT P6SM OVC007
     FM270800 36009KT P6SM BKN010 OVC023
     FM271400 01006KT P6SM SCT035=

USA.gov is the U.S. government's official web portal to all federal, state and local government web resources and services.